createdAt,value
2022-10-18T00:00:45.464Z,3.70
2022-10-18T00:01:45.489Z,5.10
2022-10-18T00:02:45.440Z,5.30
2022-10-18T00:03:45.423Z,4.30
2022-10-18T00:04:45.414Z,7.20
2022-10-18T00:05:45.393Z,6.20
2022-10-18T00:06:45.382Z,4.30
2022-10-18T00:07:45.382Z,4.50
2022-10-18T00:08:45.372Z,5.40
2022-10-18T00:09:45.344Z,2.70
2022-10-18T00:10:45.347Z,5.90
2022-10-18T00:11:45.323Z,5.60
2022-10-18T00:13:45.296Z,5.50
2022-10-18T00:14:45.283Z,4.30
2022-10-18T00:15:45.273Z,5.20
2022-10-18T00:16:45.253Z,6.10
2022-10-18T00:17:45.235Z,16.10
2022-10-18T00:18:45.242Z,6.80
2022-10-18T00:19:45.213Z,5.10
2022-10-18T00:20:45.195Z,5.80
2022-10-18T00:22:45.186Z,3.60
2022-10-18T00:23:45.162Z,5.10
2022-10-18T00:24:45.161Z,7.10
2022-10-18T00:25:45.140Z,8.70
2022-10-18T00:26:45.131Z,6.50
2022-10-18T00:27:45.241Z,3.40
2022-10-18T00:28:45.117Z,4.20
2022-10-18T00:29:45.109Z,5.90
2022-10-18T00:30:45.109Z,3.70
2022-10-18T00:31:45.072Z,4.20
2022-10-18T00:32:45.048Z,4.90
2022-10-18T00:33:45.038Z,3.30
2022-10-18T00:34:45.122Z,3.50
2022-10-18T00:35:45.034Z,4.40
2022-10-18T00:36:44.981Z,6.70
2022-10-18T00:37:44.989Z,3.90
2022-10-18T00:38:44.963Z,8.00
2022-10-18T00:39:44.986Z,4.70
2022-10-18T00:40:44.932Z,4.30
2022-10-18T00:41:44.941Z,6.20
2022-10-18T00:42:44.910Z,5.00
2022-10-18T00:43:44.912Z,4.40
2022-10-18T00:44:44.904Z,5.60
2022-10-18T00:45:44.880Z,6.20
2022-10-18T00:46:44.864Z,9.90
2022-10-18T00:47:44.859Z,6.80
2022-10-18T00:48:44.873Z,6.40
2022-10-18T00:49:44.828Z,5.90
2022-10-18T00:50:44.800Z,11.80
2022-10-18T00:51:44.801Z,5.70
2022-10-18T00:52:44.795Z,5.60
2022-10-18T00:53:44.780Z,4.30
2022-10-18T00:54:44.770Z,4.70
2022-10-18T00:55:44.748Z,3.30
2022-10-18T00:56:44.729Z,6.90
2022-10-18T00:57:44.871Z,8.50
2022-10-18T00:58:44.701Z,4.10
2022-10-18T00:59:44.698Z,6.00
2022-10-18T01:00:44.678Z,4.80
2022-10-18T01:01:44.711Z,4.60
2022-10-18T01:02:44.648Z,6.10
2022-10-18T01:03:44.761Z,6.10
2022-10-18T01:04:44.639Z,6.80
2022-10-18T01:05:44.616Z,4.60
2022-10-18T01:06:44.664Z,3.70
2022-10-18T01:07:44.588Z,4.20
2022-10-18T01:08:44.588Z,4.30
2022-10-18T01:09:44.576Z,4.70
2022-10-18T01:10:44.556Z,3.20
2022-10-18T01:11:44.536Z,3.20
2022-10-18T01:12:44.538Z,3.70
2022-10-18T01:13:44.517Z,4.50
2022-10-18T01:14:44.505Z,6.90
2022-10-18T01:15:44.557Z,6.40
2022-10-18T01:16:44.478Z,5.80
2022-10-18T01:17:44.476Z,4.70
2022-10-18T01:18:44.459Z,5.00
2022-10-18T01:19:44.438Z,4.80
2022-10-18T01:20:44.454Z,5.80
2022-10-18T01:21:44.407Z,5.80
2022-10-18T01:22:44.403Z,4.40
2022-10-18T01:23:44.385Z,7.00
2022-10-18T01:24:44.369Z,3.70
2022-10-18T01:25:44.356Z,3.80
2022-10-18T01:26:44.375Z,4.40
2022-10-18T01:27:44.336Z,4.30
2022-10-18T01:28:44.415Z,3.70
2022-10-18T01:29:44.294Z,7.70
2022-10-18T01:30:44.304Z,3.30
2022-10-18T01:31:44.362Z,4.00
2022-10-18T01:32:44.275Z,4.80
2022-10-18T01:33:44.256Z,5.50
2022-10-18T01:34:44.246Z,7.40
2022-10-18T01:35:44.236Z,5.30
2022-10-18T01:36:44.205Z,7.00
2022-10-18T01:37:44.224Z,8.50
2022-10-18T01:38:44.203Z,5.00
2022-10-18T01:39:44.174Z,4.00
2022-10-18T01:40:44.174Z,4.80
2022-10-18T01:41:44.151Z,8.20
2022-10-18T01:42:44.142Z,6.10
2022-10-18T01:43:44.131Z,3.40
2022-10-18T01:44:44.118Z,3.90
2022-10-18T01:45:44.091Z,4.60
2022-10-18T01:46:44.082Z,5.00
2022-10-18T01:47:44.062Z,4.40
2022-10-18T01:48:44.062Z,3.70
2022-10-18T01:49:44.061Z,4.10
2022-10-18T01:50:44.024Z,4.60
2022-10-18T01:51:44.023Z,5.30
2022-10-18T01:52:44.010Z,4.10
2022-10-18T01:53:43.981Z,8.10
2022-10-18T01:54:44.002Z,6.10
2022-10-18T01:55:43.963Z,3.80
2022-10-18T01:56:43.951Z,4.10
2022-10-18T01:57:43.931Z,5.30
2022-10-18T01:58:43.914Z,3.60
2022-10-18T01:59:43.910Z,4.30
2022-10-18T02:00:43.901Z,6.40
2022-10-18T02:01:43.873Z,4.80
2022-10-18T02:02:43.870Z,8.30
2022-10-18T02:03:43.854Z,5.50
2022-10-18T02:04:43.864Z,3.60
2022-10-18T02:05:43.829Z,5.00
2022-10-18T02:06:43.812Z,4.90
2022-10-18T02:07:43.845Z,10.90
2022-10-18T02:08:43.780Z,3.30
2022-10-18T02:09:43.798Z,5.30
2022-10-18T02:10:43.758Z,7.20
2022-10-18T02:11:43.760Z,6.50
2022-10-18T02:12:43.731Z,4.10
2022-10-18T02:13:43.718Z,6.90
2022-10-18T02:14:43.729Z,5.20
2022-10-18T02:15:43.706Z,5.00
2022-10-18T02:16:43.681Z,5.30
2022-10-18T02:17:43.669Z,6.10
2022-10-18T02:18:43.649Z,9.80
2022-10-18T02:19:43.659Z,6.10
2022-10-18T02:20:43.628Z,6.50
2022-10-18T02:21:43.620Z,6.00
2022-10-18T02:22:43.598Z,6.40
2022-10-18T02:23:43.589Z,4.60
2022-10-18T02:24:43.587Z,4.50
2022-10-18T02:25:43.566Z,7.10
2022-10-18T02:26:43.547Z,5.40
2022-10-18T02:27:43.538Z,3.80
2022-10-18T02:28:43.527Z,7.60
2022-10-18T02:29:43.517Z,3.50
2022-10-18T02:30:43.497Z,5.80
2022-10-18T02:31:43.484Z,5.50
2022-10-18T02:32:43.473Z,4.90
2022-10-18T02:33:43.456Z,4.40
2022-10-18T02:34:43.447Z,7.60
2022-10-18T02:35:43.429Z,4.20
2022-10-18T02:36:43.440Z,3.70
2022-10-18T02:37:43.406Z,3.50
2022-10-18T02:38:43.387Z,7.60
2022-10-18T02:39:43.387Z,6.40
2022-10-18T02:40:43.369Z,4.90
2022-10-18T02:41:43.356Z,7.60
2022-10-18T02:42:43.327Z,4.90
2022-10-18T02:43:43.316Z,3.30
2022-10-18T02:44:43.335Z,6.00
2022-10-18T02:45:43.299Z,6.40
2022-10-18T02:46:43.285Z,6.00
2022-10-18T02:47:43.274Z,5.30
2022-10-18T02:48:43.256Z,5.50
2022-10-18T02:49:43.255Z,7.40
2022-10-18T02:50:43.225Z,5.00
2022-10-18T02:51:43.234Z,4.30
2022-10-18T02:52:43.196Z,6.90
2022-10-18T02:53:43.194Z,5.70
2022-10-18T02:54:43.185Z,6.40
2022-10-18T02:55:43.165Z,3.50
2022-10-18T02:56:43.145Z,9.10
2022-10-18T02:57:43.134Z,3.70
2022-10-18T02:58:43.124Z,4.30
2022-10-18T02:59:43.126Z,5.30
2022-10-18T03:00:43.085Z,10.80
2022-10-18T03:01:43.122Z,10.90
2022-10-18T03:02:43.076Z,5.90
2022-10-18T03:03:43.053Z,8.40
2022-10-18T03:04:43.053Z,6.80
2022-10-18T03:05:43.033Z,5.80
2022-10-18T03:06:43.017Z,7.00
2022-10-18T03:07:42.994Z,6.50
2022-10-18T03:08:42.988Z,5.50
2022-10-18T03:09:42.992Z,4.70
2022-10-18T03:10:42.966Z,5.10
2022-10-18T03:11:42.965Z,8.30
2022-10-18T03:12:42.933Z,5.50
2022-10-18T03:13:42.913Z,4.10
2022-10-18T03:14:43.015Z,6.50
2022-10-18T03:15:42.892Z,3.70
2022-10-18T03:16:42.891Z,5.00
2022-10-18T03:17:42.868Z,5.40
2022-10-18T03:18:42.855Z,5.90
2022-10-18T03:19:42.870Z,4.40
2022-10-18T03:20:42.864Z,4.40
2022-10-18T03:21:42.812Z,7.30
2022-10-18T03:22:42.811Z,5.50
2022-10-18T03:23:42.797Z,4.90
2022-10-18T03:24:42.799Z,4.40
2022-10-18T03:25:45.605Z,5.30
2022-10-18T03:26:42.762Z,4.70
2022-10-18T03:27:42.744Z,4.00
2022-10-18T03:28:42.820Z,6.00
2022-10-18T03:29:42.732Z,7.40
2022-10-18T03:30:42.714Z,4.70
2022-10-18T03:31:42.693Z,6.40
2022-10-18T03:32:42.670Z,8.30
2022-10-18T03:33:42.669Z,5.40
2022-10-18T03:34:42.669Z,5.40
2022-10-18T03:35:42.631Z,5.10
2022-10-18T03:36:42.631Z,8.20
2022-10-18T03:37:42.603Z,5.90
2022-10-18T03:38:42.592Z,7.90
2022-10-18T03:39:42.614Z,4.30
2022-10-18T03:40:42.579Z,5.90
2022-10-18T03:41:42.560Z,4.00
2022-10-18T03:42:42.541Z,5.20
2022-10-18T03:43:42.538Z,5.50
2022-10-18T03:44:42.538Z,4.10
2022-10-18T03:45:42.509Z,9.30
2022-10-18T03:46:42.499Z,7.20
2022-10-18T03:47:42.471Z,6.50
2022-10-18T03:48:42.476Z,4.70
2022-10-18T03:49:42.474Z,6.50
2022-10-18T03:50:42.448Z,5.60
2022-10-18T03:51:42.426Z,6.20
2022-10-18T03:52:42.420Z,6.30
2022-10-18T03:53:42.416Z,7.90
2022-10-18T03:54:42.404Z,8.20
2022-10-18T03:55:42.377Z,5.50
2022-10-18T03:56:42.358Z,14.60
2022-10-18T03:57:42.347Z,8.40
2022-10-18T03:58:42.346Z,8.10
2022-10-18T03:59:42.334Z,7.90
2022-10-18T04:00:42.317Z,5.30
2022-10-18T04:01:42.510Z,6.90
2022-10-18T04:02:42.295Z,7.70
2022-10-18T04:03:42.267Z,10.70
2022-10-18T04:04:42.279Z,8.30
2022-10-18T04:05:42.247Z,7.40
2022-10-18T04:06:42.238Z,4.60
2022-10-18T04:07:42.229Z,6.80
2022-10-18T04:08:42.207Z,9.80
2022-10-18T04:09:42.210Z,4.30
2022-10-18T04:10:42.189Z,5.00
2022-10-18T04:11:42.170Z,6.50
2022-10-18T04:12:42.169Z,6.50
2022-10-18T04:13:42.139Z,8.20
2022-10-18T04:14:42.154Z,6.00
2022-10-18T04:15:42.114Z,4.40
2022-10-18T04:16:42.107Z,9.50
2022-10-18T04:17:42.093Z,4.60
2022-10-18T04:18:42.079Z,10.00
2022-10-18T04:19:42.075Z,8.10
2022-10-18T04:20:42.065Z,8.60
2022-10-18T04:21:42.044Z,6.70
2022-10-18T04:22:42.025Z,10.90
2022-10-18T04:23:42.007Z,12.70
2022-10-18T04:24:42.034Z,7.50
2022-10-18T04:26:41.975Z,7.30
2022-10-18T04:27:41.954Z,7.60
2022-10-18T04:28:41.998Z,7.70
2022-10-18T04:29:41.947Z,4.10
2022-10-18T04:30:41.925Z,11.40
2022-10-18T04:31:41.907Z,8.20
2022-10-18T04:32:41.896Z,9.50
2022-10-18T04:33:41.913Z,8.10
2022-10-18T04:35:41.862Z,8.30
2022-10-18T04:36:41.842Z,11.00
2022-10-18T04:37:41.832Z,10.60
2022-10-18T04:38:41.810Z,7.30
2022-10-18T04:39:41.814Z,9.60
2022-10-18T04:40:41.782Z,8.30
2022-10-18T04:41:41.771Z,11.90
2022-10-18T04:42:41.780Z,7.80
2022-10-18T04:43:41.782Z,10.10
2022-10-18T04:44:41.762Z,11.60
2022-10-18T04:45:41.723Z,11.40
2022-10-18T04:46:41.721Z,10.30
2022-10-18T04:47:41.694Z,10.90
2022-10-18T04:48:41.682Z,11.30
2022-10-18T04:49:41.681Z,12.00
2022-10-18T04:50:41.661Z,9.60
2022-10-18T04:51:41.642Z,9.40
2022-10-18T04:52:41.675Z,9.10
2022-10-18T04:53:41.620Z,11.90
2022-10-18T04:54:41.626Z,10.90
2022-10-18T04:55:41.587Z,11.90
2022-10-18T04:56:41.585Z,13.80
2022-10-18T04:57:41.560Z,13.00
2022-10-18T04:58:41.547Z,11.90
2022-10-18T04:59:41.540Z,8.90
2022-10-18T05:00:41.521Z,10.80
2022-10-18T05:01:41.568Z,12.30
2022-10-18T05:02:41.500Z,11.60
2022-10-18T05:03:41.480Z,8.90
2022-10-18T05:04:41.480Z,14.80
2022-10-18T05:06:00.098Z,12.50
2022-10-18T05:06:42.449Z,14.10
2022-10-18T05:07:41.429Z,11.80
2022-10-18T05:08:41.417Z,9.50
2022-10-18T05:09:41.416Z,12.40
2022-10-18T05:10:41.401Z,11.80
2022-10-18T05:11:41.371Z,11.70
2022-10-18T05:12:41.370Z,10.30
2022-10-18T05:13:41.349Z,14.10
2022-10-18T05:14:41.369Z,14.60
2022-10-18T05:15:41.318Z,18.20
2022-10-18T05:16:41.329Z,11.40
2022-10-18T05:17:41.299Z,12.80
2022-10-18T05:18:41.287Z,17.30
2022-10-18T05:19:41.286Z,21.00
2022-10-18T05:20:41.346Z,16.40
2022-10-18T05:21:41.247Z,15.20
2022-10-18T05:22:41.236Z,18.10
2022-10-18T05:23:41.227Z,17.00
2022-10-18T05:24:41.227Z,17.80
2022-10-18T05:25:41.198Z,14.30
2022-10-18T05:26:41.176Z,19.00
2022-10-18T05:27:41.177Z,13.80
2022-10-18T05:28:41.648Z,16.30
2022-10-18T05:29:41.165Z,19.20
2022-10-18T05:30:41.137Z,18.70
2022-10-18T05:31:41.117Z,17.10
2022-10-18T05:32:41.092Z,19.30
2022-10-18T05:33:41.087Z,18.10
2022-10-18T05:34:41.076Z,15.00
2022-10-18T05:35:41.065Z,16.80
2022-10-18T05:36:41.046Z,16.90
2022-10-18T05:37:41.037Z,17.70
2022-10-18T05:38:41.020Z,17.10
2022-10-18T05:39:41.044Z,20.30
2022-10-18T05:40:40.995Z,17.50
2022-10-18T05:41:40.985Z,18.70
2022-10-18T05:42:40.971Z,14.00
2022-10-18T05:43:40.966Z,13.20
2022-10-18T05:44:40.945Z,14.70
2022-10-18T05:45:40.934Z,13.70
2022-10-18T05:46:40.927Z,16.70
2022-10-18T05:47:40.915Z,17.70
2022-10-18T05:48:40.883Z,17.90
2022-10-18T05:49:40.894Z,22.00
2022-10-18T05:50:40.864Z,17.80
2022-10-18T05:51:40.853Z,17.20
2022-10-18T05:52:40.844Z,16.70
2022-10-18T05:53:40.826Z,16.20
2022-10-18T05:54:40.823Z,18.20
2022-10-18T05:55:40.796Z,15.80
2022-10-18T05:56:40.783Z,21.70
2022-10-18T05:57:40.783Z,17.40
2022-10-18T05:58:40.755Z,22.70
2022-10-18T05:59:40.766Z,16.30
2022-10-18T06:00:40.743Z,22.70
2022-10-18T06:01:40.722Z,22.50
2022-10-18T06:02:40.756Z,22.20
2022-10-18T06:03:40.703Z,15.90
2022-10-18T06:04:40.702Z,18.60
2022-10-18T06:05:40.708Z,19.50
2022-10-18T06:06:40.678Z,19.30
2022-10-18T06:07:40.644Z,18.20
2022-10-18T06:08:40.626Z,18.00
2022-10-18T06:09:40.630Z,18.50
2022-10-18T06:10:40.596Z,18.30
2022-10-18T06:11:40.596Z,26.60
2022-10-18T06:12:40.575Z,19.70
2022-10-18T06:13:40.565Z,24.40
2022-10-18T06:14:41.503Z,21.50
2022-10-18T06:15:40.532Z,18.20
2022-10-18T06:16:40.528Z,17.70
2022-10-18T06:17:40.504Z,17.80
2022-10-18T06:18:40.504Z,18.00
2022-10-18T06:19:40.492Z,23.10
2022-10-18T06:20:40.477Z,16.50
2022-10-18T06:21:40.453Z,20.30
2022-10-18T06:22:40.440Z,21.20
2022-10-18T06:23:40.423Z,15.40
2022-10-18T06:24:40.443Z,19.30
2022-10-18T06:25:40.413Z,25.00
2022-10-18T06:26:40.381Z,23.40
2022-10-18T06:27:40.372Z,24.00
2022-10-18T06:28:40.435Z,21.50
2022-10-18T06:29:40.363Z,16.60
2022-10-18T06:30:40.330Z,18.30
2022-10-18T06:31:40.319Z,21.60
2022-10-18T06:32:40.318Z,24.70
2022-10-18T06:33:40.296Z,19.60
2022-10-18T06:34:40.290Z,18.70
2022-10-18T06:35:40.261Z,22.10
2022-10-18T06:36:40.250Z,21.20
2022-10-18T06:37:40.277Z,21.30
2022-10-18T06:38:40.223Z,18.00
2022-10-18T06:39:40.218Z,23.40
2022-10-18T06:40:40.212Z,22.90
2022-10-18T06:41:40.188Z,23.30
2022-10-18T06:42:40.176Z,22.70
2022-10-18T06:43:40.170Z,22.50
2022-10-18T06:44:40.168Z,20.80
2022-10-18T06:45:40.129Z,20.20
2022-10-18T06:46:40.131Z,16.40
2022-10-18T06:47:40.109Z,20.10
2022-10-18T06:48:40.089Z,19.30
2022-10-18T06:49:40.090Z,18.20
2022-10-18T06:50:40.060Z,18.20
2022-10-18T06:51:40.066Z,23.60
2022-10-18T06:52:40.041Z,19.80
2022-10-18T06:53:44.205Z,21.60
2022-10-18T06:54:41.017Z,24.40
2022-10-18T06:55:39.999Z,22.10
2022-10-18T06:56:39.976Z,24.30
2022-10-18T06:57:39.977Z,19.20
2022-10-18T06:58:39.969Z,18.50
2022-10-18T06:59:39.959Z,21.10
2022-10-18T07:00:39.931Z,21.20
2022-10-18T07:01:39.987Z,26.00
2022-10-18T07:02:39.899Z,17.10
2022-10-18T07:03:39.886Z,22.60
2022-10-18T07:04:39.910Z,25.80
2022-10-18T07:05:39.945Z,21.20
2022-10-18T07:06:39.850Z,18.60
2022-10-18T07:07:39.826Z,23.70
2022-10-18T07:08:39.814Z,23.80
2022-10-18T07:09:39.853Z,30.80
2022-10-18T07:10:39.814Z,29.40
2022-10-18T07:11:39.789Z,25.10
2022-10-18T07:12:39.773Z,29.30
2022-10-18T07:13:39.763Z,18.90
2022-10-18T07:14:39.755Z,28.80
2022-10-18T07:15:39.736Z,28.10
2022-10-18T07:16:39.715Z,20.90
2022-10-18T07:17:39.733Z,20.40
2022-10-18T07:18:39.685Z,20.20
2022-10-18T07:19:39.684Z,24.80
2022-10-18T07:20:39.661Z,24.30
2022-10-18T07:21:39.655Z,25.80
2022-10-18T07:22:39.634Z,26.70
2022-10-18T07:23:39.612Z,25.20
2022-10-18T07:24:39.626Z,28.80
2022-10-18T07:25:39.583Z,34.90
2022-10-18T07:26:39.590Z,25.50
2022-10-18T07:27:39.563Z,29.20
2022-10-18T07:28:39.543Z,24.80
2022-10-18T07:29:39.552Z,25.60
2022-10-18T07:30:39.521Z,22.80
2022-10-18T07:31:39.503Z,22.20
2022-10-18T07:32:39.505Z,22.60
2022-10-18T07:33:39.480Z,26.60
2022-10-18T07:34:39.483Z,23.00
2022-10-18T07:35:39.458Z,23.30
2022-10-18T07:36:39.440Z,30.20
2022-10-18T07:37:39.432Z,25.60
2022-10-18T07:38:39.414Z,25.00
2022-10-18T07:39:39.421Z,28.00
2022-10-18T07:40:39.401Z,27.40
2022-10-18T07:41:39.370Z,30.20
2022-10-18T07:42:39.372Z,24.30
2022-10-18T07:43:39.344Z,27.10
2022-10-18T07:44:39.342Z,27.50
2022-10-18T07:45:39.325Z,26.40
2022-10-18T07:46:39.301Z,27.30
2022-10-18T07:47:39.697Z,36.10
2022-10-18T07:48:39.293Z,23.40
2022-10-18T07:49:39.272Z,22.90
2022-10-18T07:50:39.250Z,28.40
2022-10-18T07:51:39.233Z,29.20
2022-10-18T07:52:39.252Z,30.60
2022-10-18T07:53:39.221Z,27.80
2022-10-18T07:54:39.239Z,25.20
2022-10-18T07:55:39.179Z,36.90
2022-10-18T07:56:39.179Z,27.20
2022-10-18T07:57:39.168Z,22.60
2022-10-18T07:58:39.148Z,27.40
2022-10-18T07:59:39.156Z,35.70
2022-10-18T08:00:39.127Z,34.60
2022-10-18T08:01:39.148Z,33.10
2022-10-18T08:02:39.099Z,31.60
2022-10-18T08:03:39.087Z,30.50
2022-10-18T08:04:39.078Z,25.90
2022-10-18T08:05:39.063Z,26.30
2022-10-18T08:06:39.052Z,31.30
2022-10-18T08:07:39.029Z,31.60
2022-10-18T08:08:39.008Z,30.90
2022-10-18T08:09:39.010Z,31.20
2022-10-18T08:10:38.980Z,31.10
2022-10-18T08:11:38.965Z,37.70
2022-10-18T08:12:38.970Z,36.20
2022-10-18T08:13:38.944Z,33.60
2022-10-18T08:14:38.957Z,41.40
2022-10-18T08:15:38.915Z,38.00
2022-10-18T08:16:38.898Z,34.50
2022-10-18T08:17:38.886Z,35.40
2022-10-18T08:18:38.868Z,45.40
2022-10-18T08:19:44.623Z,35.70
2022-10-18T08:20:39.878Z,36.60
2022-10-18T08:21:38.842Z,35.90
2022-10-18T08:22:38.826Z,39.00
2022-10-18T08:23:38.807Z,32.60
2022-10-18T08:24:38.818Z,35.20
2022-10-18T08:25:38.797Z,34.20
2022-10-18T08:26:38.779Z,39.50
2022-10-18T08:27:38.757Z,39.80
2022-10-18T08:28:38.794Z,35.40
2022-10-18T08:29:38.757Z,38.90
2022-10-18T08:30:38.724Z,39.60
2022-10-18T08:31:38.709Z,37.10
2022-10-18T08:32:38.697Z,34.00
2022-10-18T08:33:38.673Z,33.40
2022-10-18T08:35:38.635Z,36.90
2022-10-18T08:36:38.644Z,35.10
2022-10-18T08:37:38.625Z,52.70
2022-10-18T08:38:38.617Z,41.00
2022-10-18T08:39:38.603Z,49.00
2022-10-18T08:40:38.639Z,36.30
2022-10-18T08:41:38.576Z,46.90
2022-10-18T08:42:38.544Z,45.10
2022-10-18T08:43:38.547Z,46.00
2022-10-18T08:44:38.543Z,40.50
2022-10-18T08:45:42.224Z,40.70
2022-10-18T08:46:38.510Z,47.20
2022-10-18T08:47:38.483Z,50.10
2022-10-18T08:48:38.485Z,40.40
2022-10-18T08:49:38.475Z,44.60
2022-10-18T08:50:38.452Z,48.30
2022-10-18T08:51:38.435Z,50.10
2022-10-18T08:52:38.426Z,56.90
2022-10-18T08:53:39.978Z,57.00
2022-10-18T08:54:38.403Z,47.00
2022-10-18T08:55:38.371Z,61.10
2022-10-18T08:56:38.373Z,55.80
2022-10-18T08:57:38.353Z,68.50
2022-10-18T08:58:38.342Z,54.80
2022-10-18T08:59:38.344Z,52.80
2022-10-18T09:00:38.314Z,50.50
2022-10-18T09:01:38.367Z,48.80
2022-10-18T09:02:38.293Z,61.60
2022-10-18T09:03:38.324Z,57.70
2022-10-18T09:04:38.274Z,58.80
2022-10-18T09:05:38.242Z,55.30
2022-10-18T09:06:38.241Z,65.00
2022-10-18T09:07:38.213Z,47.60
2022-10-18T09:08:38.212Z,53.30
2022-10-18T09:09:38.201Z,55.10
2022-10-18T09:10:38.190Z,62.40
2022-10-18T09:11:38.162Z,60.50
2022-10-18T09:12:38.161Z,53.30
2022-10-18T09:13:38.139Z,51.00
2022-10-18T09:14:38.143Z,51.70
2022-10-18T09:15:38.109Z,50.50
2022-10-18T09:16:38.100Z,53.30
2022-10-18T09:17:38.089Z,52.50
2022-10-18T09:18:38.070Z,59.70
2022-10-18T09:19:38.084Z,58.40
2022-10-18T09:20:38.042Z,55.80
2022-10-18T09:21:38.029Z,60.00
2022-10-18T09:22:38.010Z,55.10
2022-10-18T09:23:38.008Z,51.30
2022-10-18T09:24:37.998Z,49.40
2022-10-18T09:25:37.979Z,51.90
2022-10-18T09:26:38.000Z,61.00
2022-10-18T09:27:37.967Z,50.10
2022-10-18T09:28:37.990Z,51.90
2022-10-18T09:29:38.045Z,55.20
2022-10-18T09:30:37.909Z,50.60
2022-10-18T09:31:37.908Z,57.50
2022-10-18T09:32:37.868Z,49.90
2022-10-18T09:33:37.867Z,60.90
2022-10-18T09:34:37.901Z,48.80
2022-10-18T09:35:37.837Z,52.30
2022-10-18T09:36:37.829Z,46.70
2022-10-18T09:37:37.809Z,55.50
2022-10-18T09:38:37.808Z,51.00
2022-10-18T09:39:37.800Z,45.90
2022-10-18T09:40:37.776Z,51.90
2022-10-18T09:41:37.766Z,51.30
2022-10-18T09:42:37.755Z,52.10
2022-10-18T09:43:37.745Z,45.00
2022-10-18T09:44:37.748Z,50.00
2022-10-18T09:45:37.707Z,50.80
2022-10-18T09:46:37.699Z,50.70
2022-10-18T09:47:37.689Z,41.60
2022-10-18T09:48:37.676Z,48.10
2022-10-18T09:49:37.671Z,46.80
2022-10-18T09:50:37.658Z,46.10
2022-10-18T09:51:37.627Z,44.50
2022-10-18T09:52:37.634Z,41.30
2022-10-18T09:53:37.606Z,38.70
2022-10-18T09:54:37.613Z,45.10
2022-10-18T09:55:37.584Z,41.30
2022-10-18T09:56:40.862Z,44.40
2022-10-18T09:57:37.546Z,40.00
2022-10-18T09:58:37.546Z,45.10
2022-10-18T09:59:37.534Z,44.30
2022-10-18T10:00:37.514Z,39.40
2022-10-18T10:01:37.496Z,48.30
2022-10-18T10:02:37.534Z,40.40
2022-10-18T10:03:37.476Z,44.00
2022-10-18T10:04:37.475Z,47.30
2022-10-18T10:05:37.443Z,51.70
2022-10-18T10:06:37.483Z,45.20
2022-10-18T10:07:37.830Z,50.40
2022-10-18T10:08:37.464Z,46.10
2022-10-18T10:09:37.473Z,48.80
2022-10-18T10:10:37.505Z,50.80
2022-10-18T10:11:37.364Z,49.70
2022-10-18T10:12:37.372Z,47.80
2022-10-18T10:13:37.357Z,51.80
2022-10-18T10:14:37.344Z,53.60
2022-10-18T10:15:39.364Z,44.30
2022-10-18T10:16:37.313Z,50.80
2022-10-18T10:17:37.295Z,53.10
2022-10-18T10:18:37.285Z,52.70
2022-10-18T10:19:37.282Z,47.00
2022-10-18T10:20:37.253Z,51.80
2022-10-18T10:21:37.243Z,49.80
2022-10-18T10:22:37.242Z,47.70
2022-10-18T10:23:37.256Z,48.60
2022-10-18T10:24:37.222Z,49.60
2022-10-18T10:25:37.202Z,51.50
2022-10-18T10:26:37.189Z,49.50
2022-10-18T10:27:37.173Z,49.50
2022-10-18T10:28:37.348Z,56.90
2022-10-18T10:29:44.555Z,55.20
2022-10-18T10:30:38.122Z,58.20
2022-10-18T10:31:37.143Z,51.50
2022-10-18T10:32:37.112Z,52.30
2022-10-18T10:33:37.080Z,50.30
2022-10-18T10:34:39.806Z,54.90
2022-10-18T10:35:54.258Z,46.40
2022-10-18T10:36:38.059Z,49.10
2022-10-18T10:37:37.031Z,48.10
2022-10-18T10:38:37.030Z,49.70
2022-10-18T10:39:37.032Z,51.40
2022-10-18T10:40:37.006Z,50.20
2022-10-18T10:41:36.983Z,51.90
2022-10-18T10:42:36.971Z,48.30
2022-10-18T10:43:38.693Z,56.60
2022-10-18T10:44:36.970Z,46.20
2022-10-18T10:45:36.932Z,52.60
2022-10-18T10:46:36.919Z,50.80
2022-10-18T10:47:36.909Z,47.90
2022-10-18T10:48:36.918Z,46.80
2022-10-18T10:49:41.191Z,45.40
2022-10-18T10:50:37.348Z,50.20
2022-10-18T10:51:36.858Z,48.70
2022-10-18T10:52:36.935Z,53.70
2022-10-18T10:53:36.828Z,52.40
2022-10-18T10:54:36.840Z,46.70
2022-10-18T10:55:36.801Z,49.80
2022-10-18T10:56:36.822Z,46.10
2022-10-18T10:57:36.808Z,49.90
2022-10-18T10:58:36.784Z,48.30
2022-10-18T10:59:36.803Z,50.10
2022-10-18T11:00:36.748Z,47.50
2022-10-18T11:01:36.738Z,49.10
2022-10-18T11:02:36.788Z,54.70
2022-10-18T11:03:36.788Z,47.50
2022-10-18T11:04:36.711Z,46.70
2022-10-18T11:05:36.681Z,46.50
2022-10-18T11:06:36.667Z,42.70
2022-10-18T11:07:36.659Z,51.50
2022-10-18T11:08:36.669Z,49.00
2022-10-18T11:09:36.637Z,43.10
2022-10-18T11:10:36.619Z,43.10
2022-10-18T11:11:36.597Z,53.70
2022-10-18T11:12:36.579Z,41.50
2022-10-18T11:13:36.567Z,40.00
2022-10-18T11:14:36.568Z,40.30
2022-10-18T11:15:36.556Z,40.10
2022-10-18T11:16:36.545Z,41.30
2022-10-18T11:17:36.527Z,40.40
2022-10-18T11:18:36.526Z,38.20
2022-10-18T11:19:36.498Z,43.60
2022-10-18T11:20:36.485Z,43.30
2022-10-18T11:21:36.473Z,47.90
2022-10-18T11:22:36.467Z,42.20
2022-10-18T11:23:36.445Z,39.10
2022-10-18T11:24:36.444Z,35.40
2022-10-18T11:25:36.416Z,40.80
2022-10-18T11:26:40.901Z,44.90
2022-10-18T11:27:37.388Z,41.90
2022-10-18T11:28:36.440Z,38.50
2022-10-18T11:29:36.385Z,39.60
2022-10-18T11:30:36.366Z,29.10
2022-10-18T11:31:36.354Z,36.60
2022-10-18T11:32:36.329Z,33.70
2022-10-18T11:33:56.713Z,30.70
2022-10-18T11:34:37.339Z,27.80
2022-10-18T11:35:36.284Z,34.60
2022-10-18T11:36:36.829Z,29.30
2022-10-18T11:37:38.504Z,33.70
2022-10-18T11:38:36.265Z,31.20
2022-10-18T11:39:36.245Z,29.80
2022-10-18T11:40:36.235Z,36.60
2022-10-18T11:41:36.213Z,34.70
2022-10-18T11:42:39.829Z,32.20
2022-10-18T11:44:00.608Z,29.90
2022-10-18T11:44:37.188Z,33.90
2022-10-18T11:45:36.169Z,30.80
2022-10-18T11:46:36.161Z,31.70
2022-10-18T11:47:36.136Z,29.50
2022-10-18T11:48:36.124Z,32.10
2022-10-18T11:49:36.123Z,28.70
2022-10-18T11:50:36.098Z,30.50
2022-10-18T11:51:50.313Z,34.00
2022-10-18T11:52:37.074Z,31.80
2022-10-18T11:53:36.063Z,36.00
2022-10-18T11:54:36.149Z,25.70
2022-10-18T11:55:36.033Z,34.50
2022-10-18T11:56:36.026Z,28.50
2022-10-18T11:57:36.187Z,25.30
2022-10-18T11:58:35.992Z,25.70
2022-10-18T11:59:36.001Z,24.30
2022-10-18T12:00:35.988Z,23.50
2022-10-18T12:01:35.967Z,22.00
2022-10-18T12:02:36.402Z,22.00
2022-10-18T12:03:35.931Z,27.50
2022-10-18T12:04:40.912Z,21.00
2022-10-18T12:05:36.922Z,29.20
2022-10-18T12:06:35.897Z,28.50
2022-10-18T12:07:35.892Z,28.90
2022-10-18T12:08:35.873Z,29.10
2022-10-18T12:09:35.926Z,28.20
2022-10-18T12:10:59.950Z,30.80
2022-10-18T12:11:36.828Z,29.40
2022-10-18T12:12:35.823Z,34.60
2022-10-18T12:13:35.801Z,36.80
2022-10-18T12:14:35.802Z,30.20
2022-10-18T12:15:35.793Z,32.10
2022-10-18T12:16:50.623Z,33.90
2022-10-18T12:17:43.152Z,29.10
2022-10-18T12:18:36.739Z,25.20
2022-10-18T12:19:35.734Z,22.80
2022-10-18T12:20:35.719Z,23.00
2022-10-18T12:21:35.703Z,19.50
2022-10-18T12:22:35.681Z,23.40
2022-10-18T12:23:35.675Z,17.90
2022-10-18T12:24:35.690Z,25.80
2022-10-18T12:25:35.650Z,19.50
2022-10-18T12:26:35.630Z,22.20
2022-10-18T12:27:35.620Z,28.00
2022-10-18T12:28:35.681Z,21.10
2022-10-18T12:29:35.633Z,22.40
2022-10-18T12:30:35.580Z,17.20
2022-10-18T12:31:35.570Z,17.60
2022-10-18T12:32:35.622Z,15.60
2022-10-18T12:33:35.549Z,17.30
2022-10-18T12:34:35.542Z,18.10
2022-10-18T12:35:35.533Z,19.80
2022-10-18T12:36:35.515Z,15.70
2022-10-18T12:37:35.781Z,15.30
2022-10-18T12:38:35.489Z,15.50
2022-10-18T12:39:43.591Z,15.60
2022-10-18T12:40:36.459Z,16.10
2022-10-18T12:41:35.468Z,15.40
2022-10-18T12:42:35.432Z,12.50
2022-10-18T12:43:35.419Z,16.80
2022-10-18T12:44:35.420Z,15.50
2022-10-18T12:45:35.435Z,11.60
2022-10-18T12:46:35.381Z,21.10
2022-10-18T12:47:35.670Z,16.30
2022-10-18T12:48:35.353Z,11.50
2022-10-18T12:49:35.360Z,13.90
2022-10-18T12:50:35.347Z,16.60
2022-10-18T12:51:35.319Z,16.80
2022-10-18T12:52:35.319Z,13.80
2022-10-18T12:53:35.299Z,14.40
2022-10-18T12:54:35.299Z,16.20
2022-10-18T12:55:35.303Z,11.80
2022-10-18T12:56:35.247Z,10.90
2022-10-18T12:57:35.238Z,11.00
2022-10-18T12:58:35.218Z,10.40
2022-10-18T12:59:35.236Z,14.90
2022-10-18T13:00:35.199Z,8.20
2022-10-18T13:01:35.238Z,9.90
2022-10-18T13:02:35.559Z,6.70
2022-10-18T13:03:35.179Z,13.30
2022-10-18T13:04:35.169Z,14.20
2022-10-18T13:05:48.858Z,12.70
2022-10-18T13:06:36.123Z,8.60